Time;durP1;ratioP1;P1;durP2;ratioP2;P2;SDS_P1;SDS_P2;PMS_P1;PMS_P2;Temp;Humidity;BMP_temperature;BMP_pressure;BME280_temperature;BME280_humidity;BME280_pressure;Samples;Min_cycle;Max_cycle;Signal;HPM_P1;HPM_P2
2020/12/28 00:01:36;;;;;;;0.40;0.10;;;7.70;76.60;;;;;;5035182;28;20021;-74
2020/12/28 00:04:02;;;;;;;0.10;0.00;;;7.60;77.10;;;;;;5053706;28;20136;-74
2020/12/28 00:06:27;;;;;;;0.00;0.00;;;7.60;76.90;;;;;;5034997;28;20040;-73
2020/12/28 00:08:53;;;;;;;0.83;0.10;;;7.60;76.80;;;;;;5053143;28;20025;-74
2020/12/28 00:11:19;;;;;;;0.33;0.10;;;7.60;76.70;;;;;;5035354;28;20060;-74
2020/12/28 00:13:46;;;;;;;0.40;0.10;;;7.60;76.60;;;;;;5052717;28;20033;-73
2020/12/28 00:16:15;;;;;;;0.10;0.10;;;7.60;75.80;;;;;;5035465;28;20029;-74
2020/12/28 00:18:42;;;;;;;0.00;0.00;;;7.60;76.40;;;;;;5034758;28;20032;-74
2020/12/28 00:21:08;;;;;;;0.10;0.10;;;7.50;76.50;;;;;;5035289;28;20106;-74
2020/12/28 00:23:34;;;;;;;0.60;0.20;;;7.50;76.00;;;;;;5052776;28;20029;-73
2020/12/28 00:26:01;;;;;;;0.43;0.10;;;7.50;76.00;;;;;;5035136;28;20041;-74
2020/12/28 00:28:26;;;;;;;0.10;0.00;;;7.50;76.30;;;;;;5035185;28;20534;-74
2020/12/28 00:30:52;;;;;;;0.10;0.10;;;7.50;76.30;;;;;;5034635;28;20063;-74
2020/12/28 00:33:17;;;;;;;0.50;0.10;;;7.50;76.20;;;;;;5035142;28;20029;-74
2020/12/28 00:35:44;;;;;;;0.10;0.00;;;7.50;76.80;;;;;;5034503;28;20115;-74
2020/12/28 00:38:10;;;;;;;0.20;0.03;;;7.50;76.40;;;;;;5035152;28;20025;-74
2020/12/28 00:40:36;;;;;;;0.10;0.10;;;7.50;76.70;;;;;;5034433;28;20029;-74
2020/12/28 00:43:01;;;;;;;0.30;0.10;;;7.50;77.00;;;;;;5035256;28;20083;-74
2020/12/28 00:45:27;;;;;;;0.10;0.10;;;7.50;77.00;;;;;;5052455;28;20067;-74
2020/12/28 00:47:53;;;;;;;0.10;0.00;;;7.40;77.90;;;;;;5034371;28;20430;-74
2020/12/28 00:50:18;;;;;;;0.23;0.20;;;7.40;77.70;;;;;;5052715;28;20025;-73
2020/12/28 00:52:44;;;;;;;0.43;0.10;;;7.30;78.30;;;;;;5034316;28;20355;-73
2020/12/28 00:55:09;;;;;;;0.30;0.10;;;7.30;78.90;;;;;;5034124;28;20060;-73
2020/12/28 00:57:35;;;;;;;0.10;0.03;;;7.30;80.10;;;;;;5034231;28;20044;-74
2020/12/28 01:00:01;;;;;;;0.10;0.03;;;7.20;79.50;;;;;;5034980;28;20028;-74
2020/12/28 01:02:27;;;;;;;0.10;0.10;;;7.20;80.60;;;;;;5034816;28;20381;-74
2020/12/28 01:04:52;;;;;;;0.00;0.00;;;7.20;80.90;;;;;;5034058;28;20029;-74
2020/12/28 01:07:18;;;;;;;0.10;0.10;;;7.10;81.60;;;;;;5052569;28;20029;-74
2020/12/28 01:09:44;;;;;;;1.40;0.10;;;7.10;81.40;;;;;;5051918;28;20375;-74
2020/12/28 01:12:09;;;;;;;0.07;0.07;;;7.10;81.50;;;;;;5034631;28;20033;-74
2020/12/28 01:14:35;;;;;;;0.47;0.10;;;7.10;81.60;;;;;;5033990;28;20029;-74
2020/12/28 01:17:01;;;;;;;0.30;0.10;;;7.10;82.00;;;;;;5052378;28;20111;-73
2020/12/28 01:19:26;;;;;;;0.30;0.17;;;7.00;82.80;;;;;;5052396;28;20432;-74
2020/12/28 01:21:52;;;;;;;0.20;0.10;;;7.00;82.90;;;;;;5051763;28;20108;-74
2020/12/28 01:24:17;;;;;;;0.00;0.00;;;7.00;83.30;;;;;;5052281;28;20386;-74
2020/12/28 01:26:43;;;;;;;0.10;0.10;;;7.00;82.70;;;;;;5051865;28;20029;-74
2020/12/28 01:29:10;;;;;;;0.20;0.10;;;7.00;82.80;;;;;;5034561;28;20454;-74
2020/12/28 01:31:36;;;;;;;0.47;0.27;;;7.00;82.50;;;;;;5033782;28;20060;-74
2020/12/28 01:34:01;;;;;;;1.47;0.20;;;7.00;83.00;;;;;;5034150;28;20059;-74
2020/12/28 01:36:27;;;;;;;0.50;0.10;;;7.00;82.70;;;;;;5034418;28;20029;-74
2020/12/28 01:38:52;;;;;;;0.17;0.10;;;7.00;82.60;;;;;;5051629;28;20036;-74
2020/12/28 01:41:18;;;;;;;0.27;0.10;;;7.00;82.80;;;;;;5052196;28;20021;-74
2020/12/28 01:43:44;;;;;;;0.10;0.07;;;7.00;82.70;;;;;;5051490;28;20083;-74
2020/12/28 01:46:11;;;;;;;1.07;0.10;;;7.00;83.20;;;;;;5034183;28;20036;-74
2020/12/28 01:48:37;;;;;;;0.10;0.10;;;7.00;83.50;;;;;;5033574;28;20025;-74
2020/12/28 01:51:04;;;;;;;0.43;0.17;;;7.00;83.40;;;;;;5033894;28;20079;-74
2020/12/28 01:53:30;;;;;;;0.60;0.10;;;7.00;83.40;;;;;;5033936;28;20021;-74
2020/12/28 01:56:01;;;;;;;0.40;0.10;;;7.00;83.90;;;;;;5051154;28;20063;-74
2020/12/28 01:58:28;;;;;;;0.10;0.10;;;6.90;83.50;;;;;;5034229;28;20037;-74
2020/12/28 02:00:55;;;;;;;0.77;0.10;;;6.90;83.60;;;;;;5051402;28;20037;-74
2020/12/28 02:03:21;;;;;;;0.53;0.10;;;6.90;83.50;;;;;;5034111;28;20523;-74
2020/12/28 02:05:46;;;;;;;0.20;0.10;;;6.90;83.70;;;;;;5051392;28;20033;-74
2020/12/28 02:08:12;;;;;;;0.10;0.00;;;6.90;84.00;;;;;;5037466;28;20032;-74
2020/12/28 02:10:38;;;;;;;1.10;0.00;;;6.90;83.50;;;;;;5055110;28;20021;-74
2020/12/28 02:13:03;;;;;;;0.10;0.10;;;6.90;83.50;;;;;;5055160;28;20120;-74
2020/12/28 02:15:29;;;;;;;0.30;0.10;;;6.90;83.60;;;;;;5055555;28;20025;-74
2020/12/28 02:17:55;;;;;;;0.30;0.03;;;6.90;84.00;;;;;;5054915;28;20055;-74
2020/12/28 02:20:20;;;;;;;0.30;0.10;;;6.90;85.10;;;;;;5037644;28;20037;-74
2020/12/28 02:22:46;;;;;;;0.30;0.13;;;6.90;84.40;;;;;;5054861;28;20477;-73
2020/12/28 02:25:12;;;;;;;1.43;0.10;;;6.90;84.50;;;;;;5037440;28;20082;-73
2020/12/28 02:27:37;;;;;;;0.77;0.00;;;6.90;85.20;;;;;;5054773;28;20469;-73
2020/12/28 02:30:04;;;;;;;0.10;0.00;;;6.80;85.00;;;;;;5055312;28;20021;-74
2020/12/28 02:32:30;;;;;;;0.00;0.00;;;6.80;85.80;;;;;;5055544;28;20075;-74
2020/12/28 02:34:56;;;;;;;0.20;0.10;;;6.80;85.20;;;;;;5054600;28;20067;-74
2020/12/28 02:37:22;;;;;;;0.00;0.00;;;6.80;85.50;;;;;;5037311;28;20076;-74
2020/12/28 02:39:47;;;;;;;0.63;0.10;;;6.80;85.60;;;;;;5054493;28;20025;-74
2020/12/28 02:42:13;;;;;;;0.20;0.20;;;6.70;85.50;;;;;;5055097;28;20044;-74
2020/12/28 02:44:39;;;;;;;0.40;0.07;;;6.70;85.20;;;;;;5054394;28;20040;-73
2020/12/28 02:47:04;;;;;;;0.20;0.10;;;6.70;85.90;;;;;;5037168;28;20040;-73
2020/12/28 02:49:30;;;;;;;0.10;0.00;;;6.70;85.60;;;;;;5054979;28;20446;-74
2020/12/28 02:51:55;;;;;;;0.40;0.10;;;6.70;85.70;;;;;;5054028;28;20493;-74
2020/12/28 02:54:21;;;;;;;0.10;0.10;;;6.70;85.80;;;;;;5037057;28;20068;-74
2020/12/28 02:56:47;;;;;;;0.50;0.10;;;6.70;85.80;;;;;;5036010;28;20061;-74
2020/12/28 02:59:13;;;;;;;0.20;0.10;;;6.70;86.00;;;;;;5054841;28;20367;-74
2020/12/28 03:01:38;;;;;;;3.00;0.20;;;6.70;85.90;;;;;;5054148;28;20544;-73
2020/12/28 03:04:04;;;;;;;0.10;0.10;;;6.70;86.20;;;;;;5036972;28;20052;-74
2020/12/28 03:06:30;;;;;;;0.20;0.10;;;6.70;86.50;;;;;;5036899;28;20029;-74
2020/12/28 03:08:56;;;;;;;0.07;0.07;;;6.70;86.20;;;;;;5036088;28;20024;-73
2020/12/28 03:11:21;;;;;;;0.10;0.10;;;6.70;86.70;;;;;;5036653;28;20078;-74
2020/12/28 03:13:47;;;;;;;0.20;0.10;;;6.70;86.90;;;;;;5035955;28;20029;-73
2020/12/28 03:16:13;;;;;;;0.43;0.20;;;6.70;87.00;;;;;;5036770;28;20036;-74
2020/12/28 03:18:38;;;;;;;1.40;0.20;;;6.70;86.90;;;;;;5053578;28;20174;-74
2020/12/28 03:21:04;;;;;;;0.40;0.20;;;6.70;86.90;;;;;;5054465;28;20025;-74
2020/12/28 03:23:30;;;;;;;0.10;0.10;;;6.70;87.30;;;;;;5036492;28;20120;-73
2020/12/28 03:25:55;;;;;;;0.20;0.17;;;6.70;87.50;;;;;;5053798;28;20037;-74
2020/12/28 03:28:21;;;;;;;0.60;0.10;;;6.60;87.60;;;;;;5054254;28;20028;-74
2020/12/28 03:30:48;;;;;;;2.17;0.30;;;6.60;87.90;;;;;;5053565;28;20024;-74
2020/12/28 03:33:14;;;;;;;0.27;0.10;;;6.60;87.80;;;;;;5036249;28;20025;-74
2020/12/28 03:35:40;;;;;;;0.93;0.10;;;6.60;87.70;;;;;;5035579;28;20052;-73
2020/12/28 03:38:06;;;;;;;2.30;0.10;;;6.60;88.00;;;;;;5036291;28;20025;-74
2020/12/28 03:40:32;;;;;;;0.17;0.10;;;6.60;87.90;;;;;;5054022;28;20450;-74
2020/12/28 03:42:58;;;;;;;0.20;0.10;;;6.60;88.20;;;;;;5053319;28;20029;-74
2020/12/28 03:45:23;;;;;;;0.10;0.10;;;6.60;87.80;;;;;;5053781;28;20075;-74
2020/12/28 03:47:49;;;;;;;0.63;0.30;;;6.60;87.80;;;;;;5035242;28;20501;-74
2020/12/28 03:50:14;;;;;;;0.40;0.20;;;6.60;86.60;;;;;;5053515;28;20068;-74
2020/12/28 03:52:40;;;;;;;0.27;0.10;;;6.60;85.90;;;;;;5035483;28;20466;-74
2020/12/28 03:55:09;;;;;;;0.20;0.03;;;6.60;85.70;;;;;;5035528;28;20039;-73
2020/12/28 03:57:35;;;;;;;0.20;0.10;;;6.60;86.30;;;;;;5035858;28;20531;-74
2020/12/28 04:00:00;;;;;;;0.83;0.10;;;6.60;86.70;;;;;;5035155;28;20495;-73
2020/12/28 04:02:26;;;;;;;0.20;0.10;;;6.50;87.10;;;;;;5053238;28;20029;-73
2020/12/28 04:04:52;;;;;;;0.20;0.20;;;6.60;87.60;;;;;;5052782;28;20033;-74
2020/12/28 04:07:18;;;;;;;2.03;0.30;;;6.60;87.60;;;;;;5035560;28;20025;-74
2020/12/28 04:09:43;;;;;;;0.07;0.00;;;6.50;88.00;;;;;;5052886;28;20028;-74
2020/12/28 04:12:09;;;;;;;0.20;0.10;;;6.50;88.30;;;;;;5053347;28;20025;-73
2020/12/28 04:14:35;;;;;;;0.67;0.10;;;6.50;88.50;;;;;;5035620;28;20043;-73
2020/12/28 04:17:00;;;;;;;0.20;0.20;;;6.50;88.60;;;;;;5034866;28;20478;-73
2020/12/28 04:19:26;;;;;;;0.10;0.10;;;6.50;88.60;;;;;;5053536;28;20029;-74
2020/12/28 04:21:51;;;;;;;0.30;0.20;;;6.40;89.00;;;;;;5052341;28;20032;-74
2020/12/28 04:24:17;;;;;;;0.80;0.17;;;6.40;89.20;;;;;;5035202;28;20382;-74
2020/12/28 04:26:43;;;;;;;0.50;0.10;;;6.50;89.00;;;;;;5034745;28;20123;-73
2020/12/28 04:29:11;;;;;;;0.20;0.20;;;6.50;88.90;;;;;;5052546;28;20111;-74
2020/12/28 04:31:37;;;;;;;0.50;0.20;;;6.40;88.80;;;;;;5053033;28;20021;-74
2020/12/28 04:34:03;;;;;;;2.03;0.20;;;6.50;88.60;;;;;;5034484;28;20338;-74
2020/12/28 04:36:28;;;;;;;0.57;0.20;;;6.50;88.30;;;;;;5035151;28;20035;-74
2020/12/28 04:38:54;;;;;;;0.20;0.20;;;6.50;88.50;;;;;;5052339;28;20033;-74
2020/12/28 04:41:20;;;;;;;0.47;0.20;;;6.50;88.50;;;;;;5052944;28;20021;-73
2020/12/28 04:43:45;;;;;;;0.67;0.10;;;6.50;88.70;;;;;;5034239;28;20087;-74
2020/12/28 04:46:11;;;;;;;1.43;0.20;;;6.50;88.30;;;;;;5052499;28;20029;-74
2020/12/28 04:48:38;;;;;;;0.53;0.27;;;6.50;88.50;;;;;;5034858;28;20458;-74
2020/12/28 04:51:04;;;;;;;0.57;0.30;;;6.40;88.20;;;;;;5052121;28;20098;-74
2020/12/28 04:53:30;;;;;;;1.80;0.10;;;6.50;88.10;;;;;;5052413;28;20033;-74
2020/12/28 04:55:57;;;;;;;0.30;0.10;;;6.50;88.40;;;;;;5051646;28;20183;-73
2020/12/28 04:58:23;;;;;;;0.40;0.30;;;6.50;88.40;;;;;;5052650;28;20021;-74
2020/12/28 05:00:59;;;;;;;0.80;0.20;;;6.50;88.30;;;;;;5034105;28;20033;-74
2020/12/28 05:03:26;;;;;;;0.33;0.20;;;6.50;87.90;;;;;;5034751;28;20029;-74
2020/12/28 05:05:52;;;;;;;1.07;0.20;;;6.60;87.90;;;;;;5034308;28;20040;-74
2020/12/28 05:08:18;;;;;;;0.20;0.20;;;6.50;87.70;;;;;;5034573;28;20025;-73
2020/12/28 05:10:45;;;;;;;0.33;0.30;;;6.60;87.50;;;;;;5052449;28;20021;-74
2020/12/28 05:13:12;;;;;;;0.30;0.20;;;6.60;87.40;;;;;;5052515;28;20466;-74
2020/12/28 05:15:51;;;;;;;0.30;0.20;;;6.60;87.10;;;;;;5034714;28;20029;-74
2020/12/28 05:18:18;;;;;;;0.70;0.20;;;6.60;87.00;;;;;;5034568;28;20029;-74
2020/12/28 05:20:48;;;;;;;0.43;0.20;;;6.60;87.10;;;;;;5034534;28;20040;-74
2020/12/28 05:23:14;;;;;;;1.00;0.30;;;6.50;87.10;;;;;;5052644;28;20025;-74
2020/12/28 05:25:52;;;;;;;0.40;0.27;;;6.50;86.90;;;;;;5034388;28;20053;-74
2020/12/28 05:28:25;;;;;;;0.47;0.10;;;6.60;86.70;;;;;;5052408;28;20028;-74
2020/12/28 05:30:52;;;;;;;0.77;0.20;;;6.60;86.80;;;;;;5033917;28;20048;-74
2020/12/28 05:33:18;;;;;;;0.63;0.30;;;6.60;86.90;;;;;;5052256;28;20064;-74
2020/12/28 05:35:45;;;;;;;0.33;0.13;;;6.60;86.80;;;;;;5034450;28;20087;-74
2020/12/28 05:38:12;;;;;;;0.30;0.20;;;6.60;87.00;;;;;;5033775;28;20477;-74
2020/12/28 05:40:39;;;;;;;0.67;0.17;;;6.60;87.20;;;;;;5053241;28;20503;-74
2020/12/28 05:43:06;;;;;;;0.30;0.10;;;6.60;87.20;;;;;;5037711;28;20021;-74
2020/12/28 05:45:32;;;;;;;0.10;0.10;;;6.50;88.30;;;;;;5056088;28;20037;-74
2020/12/28 05:47:59;;;;;;;0.10;0.10;;;6.40;88.80;;;;;;5037590;28;20052;-74
2020/12/28 05:50:30;;;;;;;0.93;0.10;;;6.40;89.00;;;;;;5056032;28;20199;-74
2020/12/28 05:53:01;;;;;;;0.60;0.30;;;6.40;88.80;;;;;;5037634;28;20484;-74
2020/12/28 05:55:28;;;;;;;0.40;0.20;;;6.40;88.70;;;;;;5055690;28;20055;-74
2020/12/28 05:57:55;;;;;;;1.60;0.43;;;6.50;88.50;;;;;;5055270;28;20035;-73
2020/12/28 06:00:21;;;;;;;0.20;0.17;;;6.40;88.40;;;;;;5038009;28;20021;-74
2020/12/28 06:02:47;;;;;;;1.63;0.20;;;6.40;88.50;;;;;;5055873;28;20024;-74
2020/12/28 06:05:18;;;;;;;0.30;0.30;;;6.40;88.50;;;;;;5037933;28;20538;-74
2020/12/28 06:07:44;;;;;;;1.60;0.40;;;6.40;88.50;;;;;;5055798;28;20025;-74
2020/12/28 06:10:11;;;;;;;0.50;0.20;;;6.30;88.50;;;;;;5037177;28;20359;-74
2020/12/28 06:12:38;;;;;;;0.77;0.40;;;6.30;88.90;;;;;;5037501;28;20021;-74
2020/12/28 06:15:19;;;;;;;0.20;0.20;;;6.30;89.20;;;;;;5037108;28;20436;-74
2020/12/28 06:17:45;;;;;;;1.30;0.20;;;6.30;89.30;;;;;;5037876;28;20028;-74
2020/12/28 06:20:13;;;;;;;0.77;0.20;;;6.30;89.20;;;;;;5036706;28;20030;-74
2020/12/28 06:22:41;;;;;;;2.67;0.40;;;6.30;89.20;;;;;;5055400;28;20025;-75
2020/12/28 06:25:08;;;;;;;1.07;0.43;;;6.30;89.30;;;;;;5054639;28;20024;-74
2020/12/28 06:27:35;;;;;;;0.87;0.30;;;6.20;89.40;;;;;;5037459;28;20025;-74
2020/12/28 06:30:11;;;;;;;0.63;0.33;;;6.30;89.20;;;;;;5036803;28;20029;-74
2020/12/28 06:32:38;;;;;;;0.20;0.20;;;6.20;89.40;;;;;;5037480;28;20024;-74
2020/12/28 06:35:08;;;;;;;0.63;0.40;;;6.20;89.40;;;;;;5054628;28;20029;-74
2020/12/28 06:37:48;;;;;;;1.47;0.40;;;6.10;89.50;;;;;;5037271;28;20033;-74
2020/12/28 06:40:29;;;;;;;0.83;0.40;;;6.10;89.00;;;;;;5036706;28;20094;-74
2020/12/28 06:43:15;;;;;;;0.93;0.40;;;6.20;89.00;;;;;;5036668;28;20025;-74
2020/12/28 06:45:46;;;;;;;1.43;0.50;;;6.10;88.60;;;;;;5055068;28;20063;-74
2020/12/28 06:48:22;;;;;;;0.40;0.40;;;6.20;88.60;;;;;;5054388;28;20166;-75
2020/12/28 06:50:49;;;;;;;0.63;0.30;;;6.10;88.70;;;;;;5037182;28;20374;-74
2020/12/28 06:53:22;;;;;;;0.47;0.27;;;6.10;88.70;;;;;;5053589;28;20025;-74
2020/12/28 06:55:48;;;;;;;0.73;0.33;;;6.10;88.40;;;;;;5036567;28;20482;-74
2020/12/28 06:58:14;;;;;;;0.50;0.47;;;6.20;88.30;;;;;;5036343;28;20021;-74
2020/12/28 07:00:39;;;;;;;1.57;0.50;;;6.10;88.30;;;;;;5036898;28;20025;-74
2020/12/28 07:03:12;;;;;;;0.30;0.30;;;6.10;88.40;;;;;;5036269;28;20374;-75
2020/12/28 07:05:38;;;;;;;0.50;0.30;;;6.10;88.10;;;;;;5054725;28;20513;-74
2020/12/28 07:08:04;;;;;;;0.50;0.30;;;6.10;88.10;;;;;;5054033;28;20029;-74
2020/12/28 07:10:30;;;;;;;0.27;0.20;;;6.10;88.80;;;;;;5036582;28;20359;-75
2020/12/28 07:13:04;;;;;;;0.23;0.20;;;6.10;88.20;;;;;;5053932;28;20025;-74
2020/12/28 07:15:30;;;;;;;0.40;0.30;;;6.20;88.20;;;;;;5036784;28;20036;-75
2020/12/28 07:18:03;;;;;;;0.37;0.20;;;6.20;88.00;;;;;;5035915;28;20025;-74
2020/12/28 07:20:29;;;;;;;0.60;0.30;;;6.20;88.10;;;;;;5036630;28;20091;-74
2020/12/28 07:22:54;;;;;;;0.63;0.40;;;6.20;87.80;;;;;;5053506;28;20593;-74
2020/12/28 07:25:20;;;;;;;0.50;0.40;;;6.10;88.00;;;;;;5054209;28;20080;-74
2020/12/28 07:27:46;;;;;;;0.30;0.23;;;6.20;88.10;;;;;;5036490;28;20381;-74
2020/12/28 07:30:12;;;;;;;0.77;0.40;;;6.10;88.20;;;;;;5035665;28;20462;-74
2020/12/28 07:32:40;;;;;;;2.00;0.47;;;6.00;88.40;;;;;;5054438;28;20028;-74
2020/12/28 07:35:06;;;;;;;1.20;0.40;;;6.00;88.70;;;;;;5035609;28;20041;-74
2020/12/28 07:37:37;;;;;;;1.03;0.40;;;6.10;88.70;;;;;;5035886;28;20052;-74
2020/12/28 07:40:03;;;;;;;0.47;0.30;;;6.00;88.80;;;;;;5053193;28;20040;-74
2020/12/28 07:42:29;;;;;;;0.40;0.30;;;6.00;88.50;;;;;;5053991;28;20061;-74
2020/12/28 07:45:00;;;;;;;0.60;0.40;;;5.90;89.10;;;;;;5035435;28;20509;-74
2020/12/28 07:47:54;;;;;;;1.30;0.50;;;5.90;89.40;;;;;;5036355;28;20069;-74
2020/12/28 07:50:21;;;;;;;0.50;0.33;;;5.80;89.20;;;;;;5036353;28;20032;-74
2020/12/28 07:53:03;;;;;;;0.67;0.30;;;5.80;89.20;;;;;;5035894;28;20029;-74
2020/12/28 07:55:34;;;;;;;;;;;5.80;89.00;;;;;;5053961;28;20072;-74
2020/12/28 07:58:41;;;;;;;0.40;0.23;;;5.80;88.90;;;;;;5053208;28;20418;-74
2020/12/28 08:01:21;;;;;;;0.57;0.50;;;5.80;88.90;;;;;;5017437;28;20037;-73
2020/12/28 08:03:49;;;;;;;0.67;0.50;;;5.70;89.10;;;;;;5034941;28;20488;-74
2020/12/28 08:06:15;;;;;;;1.80;0.40;;;5.70;89.00;;;;;;5034859;28;20067;-74
2020/12/28 08:08:41;;;;;;;1.87;0.40;;;5.70;89.10;;;;;;5035696;28;20036;-74
2020/12/28 08:11:07;;;;;;;0.40;0.30;;;5.70;89.00;;;;;;5052817;28;20025;-74
2020/12/28 08:13:35;;;;;;;0.50;0.40;;;5.70;88.90;;;;;;5053444;28;20454;-74
2020/12/28 08:16:15;;;;;;;0.37;0.30;;;5.80;88.90;;;;;;5034846;28;20025;-73
2020/12/28 08:18:54;;;;;;;0.40;0.40;;;5.70;88.70;;;;;;5035603;28;20029;-74
2020/12/28 08:21:24;;;;;;;0.60;0.40;;;5.80;88.80;;;;;;5052731;28;20031;-74
2020/12/28 08:23:54;;;;;;;0.77;0.47;;;5.80;88.70;;;;;;5035184;28;20029;-74
2020/12/28 08:26:25;;;;;;;0.43;0.43;;;5.80;88.90;;;;;;5034676;28;20049;-73
2020/12/28 08:29:01;;;;;;;1.50;0.50;;;5.90;88.70;;;;;;5035372;28;20385;-74
2020/12/28 08:31:33;;;;;;;0.90;0.53;;;5.80;89.20;;;;;;5035411;28;20025;-74
2020/12/28 08:34:04;;;;;;;0.70;0.60;;;5.80;88.60;;;;;;5034947;28;20040;-73
2020/12/28 08:36:32;;;;;;;2.00;0.70;;;5.80;88.60;;;;;;5052957;28;20021;-74
2020/12/28 08:38:58;;;;;;;1.20;0.70;;;5.80;88.70;;;;;;5052284;28;20017;-74
2020/12/28 08:41:24;;;;;;;1.23;0.73;;;5.90;88.80;;;;;;5035040;28;20025;-74
2020/12/28 08:43:49;;;;;;;0.70;0.70;;;5.80;88.50;;;;;;5035003;28;20107;-74
2020/12/28 08:46:22;;;;;;;0.97;0.60;;;5.90;88.40;;;;;;5034423;28;20037;-74
2020/12/28 08:48:48;;;;;;;0.97;0.63;;;5.90;88.20;;;;;;5035088;28;20025;-74
2020/12/28 08:51:19;;;;;;;2.27;0.77;;;5.90;88.20;;;;;;5034362;28;20032;-74
2020/12/28 08:53:50;;;;;;;0.93;0.60;;;5.90;88.10;;;;;;5034948;28;20032;-75
2020/12/28 08:56:17;;;;;;;0.90;0.50;;;5.90;88.10;;;;;;5030634;28;20065;-75
2020/12/28 08:58:42;;;;;;;1.30;0.90;;;5.90;88.10;;;;;;5031414;28;20030;-75
2020/12/28 09:01:08;;;;;;;1.10;0.60;;;5.90;88.00;;;;;;5030836;28;20033;-74
2020/12/28 09:03:37;;;;;;;1.23;0.70;;;6.00;87.90;;;;;;5031339;28;20030;-74
2020/12/28 09:06:04;;;;;;;2.10;0.70;;;6.00;87.50;;;;;;5032072;28;20108;-74
2020/12/28 09:08:31;;;;;;;0.90;0.60;;;6.00;87.40;;;;;;5031368;28;20112;-74
2020/12/28 09:10:57;;;;;;;1.60;0.63;;;6.10;87.40;;;;;;5032688;28;20048;-74
2020/12/28 09:13:23;;;;;;;1.30;0.50;;;6.10;87.30;;;;;;5031964;28;20021;-74
2020/12/28 09:15:49;;;;;;;1.10;0.53;;;6.10;87.30;;;;;;5030744;28;20417;-75
2020/12/28 09:18:15;;;;;;;0.90;0.60;;;6.00;87.50;;;;;;5030732;28;20117;-74
2020/12/28 09:20:40;;;;;;;1.90;0.70;;;6.10;87.80;;;;;;5032557;28;20108;-74
2020/12/28 09:23:06;;;;;;;2.07;1.10;;;6.10;87.70;;;;;;5031897;28;20374;-74
2020/12/28 09:25:31;;;;;;;1.00;0.80;;;6.10;87.60;;;;;;5031122;28;20120;-74
2020/12/28 09:27:57;;;;;;;1.20;0.60;;;6.10;88.00;;;;;;5031220;28;20064;-74
2020/12/28 09:30:23;;;;;;;0.70;0.60;;;6.20;88.00;;;;;;5031772;28;20524;-74
2020/12/28 09:32:50;;;;;;;0.60;0.50;;;6.20;87.60;;;;;;5031234;28;20025;-74
2020/12/28 09:35:16;;;;;;;0.93;0.70;;;6.20;87.50;;;;;;5030451;28;20037;-74
2020/12/28 09:37:42;;;;;;;1.33;0.80;;;6.30;87.60;;;;;;5031095;28;20030;-74
2020/12/28 09:40:08;;;;;;;0.90;0.60;;;6.30;87.40;;;;;;5030490;28;20033;-74
2020/12/28 09:42:33;;;;;;;1.43;0.70;;;6.30;87.20;;;;;;5032374;28;20405;-74
2020/12/28 09:44:59;;;;;;;2.27;0.80;;;6.30;87.30;;;;;;5032495;28;20454;-74
2020/12/28 09:47:25;;;;;;;1.40;0.73;;;6.30;87.20;;;;;;5031380;28;20073;-74
2020/12/28 09:49:50;;;;;;;1.60;0.60;;;6.30;87.30;;;;;;5032186;28;20053;-74
2020/12/28 09:52:16;;;;;;;0.90;0.50;;;6.40;87.20;;;;;;5031893;28;20037;-74
2020/12/28 09:54:41;;;;;;;2.50;0.80;;;6.40;86.70;;;;;;5031043;28;20067;-74
2020/12/28 09:57:07;;;;;;;0.93;0.43;;;6.40;86.70;;;;;;5048030;28;20091;-74
2020/12/28 09:59:37;;;;;;;1.53;0.70;;;6.50;87.00;;;;;;5051992;28;20378;-75
2020/12/28 10:02:04;;;;;;;1.20;0.70;;;6.50;87.50;;;;;;5051395;28;20486;-74
2020/12/28 10:04:30;;;;;;;1.03;0.50;;;6.60;87.00;;;;;;5034059;28;20032;-74
2020/12/28 10:06:56;;;;;;;2.10;0.70;;;6.60;86.70;;;;;;5034097;28;20033;-74
2020/12/28 10:09:21;;;;;;;1.53;0.90;;;6.70;86.50;;;;;;5051317;28;20421;-74
2020/12/28 10:11:47;;;;;;;0.73;0.60;;;6.70;86.50;;;;;;5033997;28;20032;-74
2020/12/28 10:14:14;;;;;;;0.77;0.53;;;6.80;86.10;;;;;;5033339;28;20059;-74
2020/12/28 10:16:40;;;;;;;1.40;0.70;;;6.80;86.20;;;;;;5034349;28;20025;-74
2020/12/28 10:19:05;;;;;;;1.47;0.70;;;6.90;86.20;;;;;;5033393;28;20035;-74
2020/12/28 10:21:31;;;;;;;0.83;0.70;;;6.80;86.20;;;;;;5052109;28;20029;-74
2020/12/28 10:23:57;;;;;;;0.60;0.60;;;6.90;86.40;;;;;;5051843;28;20032;-74
2020/12/28 10:26:27;;;;;;;0.50;0.40;;;6.90;86.60;;;;;;5050896;28;20040;-74
2020/12/28 10:28:54;;;;;;;1.47;0.60;;;6.90;86.30;;;;;;5036929;28;20036;-74
2020/12/28 10:31:21;;;;;;;1.03;0.60;;;6.90;86.20;;;;;;5054412;28;20025;-74
2020/12/28 10:33:49;;;;;;;0.70;0.70;;;7.00;86.00;;;;;;5055380;28;20048;-74
2020/12/28 10:36:28;;;;;;;0.83;0.50;;;7.00;85.90;;;;;;5036690;28;20032;-74
2020/12/28 10:38:57;;;;;;;1.07;0.60;;;7.00;85.90;;;;;;5037495;28;20029;-75
2020/12/28 10:41:24;;;;;;;0.97;0.60;;;7.00;85.30;;;;;;5036621;28;20028;-75
2020/12/28 10:43:50;;;;;;;1.20;0.70;;;7.00;85.50;;;;;;5055312;28;20024;-75
2020/12/28 10:46:15;;;;;;;2.07;0.97;;;7.00;85.90;;;;;;5036577;28;20032;-74
2020/12/28 10:48:41;;;;;;;1.13;0.80;;;7.00;85.80;;;;;;5037299;28;20029;-75
2020/12/28 10:51:11;;;;;;;1.33;0.80;;;7.10;85.90;;;;;;5054135;28;20055;-74
2020/12/28 10:53:38;;;;;;;1.87;0.90;;;7.10;85.70;;;;;;5037247;28;20059;-75
2020/12/28 10:56:05;;;;;;;1.37;0.87;;;7.20;85.70;;;;;;5036668;28;20053;-75
2020/12/28 10:58:31;;;;;;;1.63;0.90;;;7.20;85.30;;;;;;5054800;28;20017;-74
2020/12/28 11:00:57;;;;;;;1.00;0.70;;;7.20;85.30;;;;;;5054790;28;20060;-74
2020/12/28 11:03:23;;;;;;;0.93;0.80;;;7.20;85.50;;;;;;5036295;28;20404;-74
2020/12/28 11:05:48;;;;;;;2.67;0.83;;;7.30;85.30;;;;;;5054571;28;20068;-74
2020/12/28 11:08:14;;;;;;;1.03;0.80;;;7.30;85.10;;;;;;5054036;28;20112;-74
2020/12/28 11:10:40;;;;;;;0.70;0.60;;;7.30;85.30;;;;;;5054511;28;20100;-74
2020/12/28 11:13:07;;;;;;;1.07;0.80;;;7.30;85.20;;;;;;5036599;28;20036;-74
2020/12/28 11:15:33;;;;;;;1.30;0.70;;;7.40;84.90;;;;;;5036756;28;20033;-74
2020/12/28 11:17:59;;;;;;;1.93;0.90;;;7.50;85.00;;;;;;5054547;28;20025;-75
2020/12/28 11:20:24;;;;;;;0.83;0.50;;;7.50;84.80;;;;;;5053892;28;20112;-74
2020/12/28 11:22:50;;;;;;;1.13;0.83;;;7.50;84.50;;;;;;5054305;28;20029;-74
2020/12/28 11:25:16;;;;;;;1.30;0.77;;;7.60;84.10;;;;;;5053562;28;20044;-75
2020/12/28 11:27:42;;;;;;;1.03;0.67;;;7.60;84.10;;;;;;5036684;28;20485;-75
2020/12/28 11:30:08;;;;;;;1.40;0.70;;;7.50;84.10;;;;;;5035799;28;20106;-75
2020/12/28 11:32:34;;;;;;;1.53;0.80;;;7.50;84.30;;;;;;5036259;28;20084;-75
2020/12/28 11:34:59;;;;;;;1.33;0.80;;;7.50;84.30;;;;;;5036335;28;20033;-76
2020/12/28 11:37:25;;;;;;;0.50;0.50;;;7.50;84.60;;;;;;5053567;28;20029;-74
2020/12/28 11:39:51;;;;;;;0.80;0.57;;;7.50;85.00;;;;;;5035816;28;20032;-75
2020/12/28 11:42:18;;;;;;;0.80;0.70;;;7.40;85.00;;;;;;5053374;28;20100;-74
2020/12/28 11:44:44;;;;;;;0.80;0.50;;;7.40;85.70;;;;;;5036019;28;20380;-75
2020/12/28 11:47:10;;;;;;;1.00;0.50;;;7.40;86.10;;;;;;5035446;28;20035;-74
2020/12/28 11:49:36;;;;;;;2.37;0.70;;;7.40;86.30;;;;;;5035985;28;20033;-74
2020/12/28 11:52:02;;;;;;;2.17;0.83;;;7.30;86.00;;;;;;5035959;28;20381;-75
2020/12/28 11:54:28;;;;;;;1.93;1.00;;;7.30;85.60;;;;;;5052920;28;20029;-74
2020/12/28 11:56:54;;;;;;;1.27;0.70;;;7.30;86.30;;;;;;5035238;28;20045;-74
2020/12/28 11:59:19;;;;;;;2.13;0.87;;;7.20;86.90;;;;;;5035210;28;20036;-74
2020/12/28 12:01:48;;;;;;;1.07;0.70;;;7.00;86.60;;;;;;5053312;28;20025;-74
2020/12/28 12:04:15;;;;;;;2.30;0.80;;;6.90;87.00;;;;;;5052876;28;20025;-74
2020/12/28 12:06:41;;;;;;;0.53;0.40;;;6.60;88.50;;;;;;5053544;28;20033;-74
2020/12/28 12:09:11;;;;;;;1.57;0.50;;;6.30;88.90;;;;;;5035610;28;20044;-74
2020/12/28 12:11:41;;;;;;;0.40;0.30;;;6.00;88.10;;;;;;5053417;28;20021;-75
2020/12/28 12:14:07;;;;;;;0.70;0.40;;;5.80;88.90;;;;;;5035389;28;20071;-74
2020/12/28 12:16:33;;;;;;;0.30;0.13;;;5.60;90.10;;;;;;5034882;28;20478;-74
2020/12/28 12:18:58;;;;;;;1.80;0.10;;;5.50;90.00;;;;;;5035536;28;20032;-74
2020/12/28 12:21:24;;;;;;;0.10;0.10;;;5.40;89.90;;;;;;5052676;28;20493;-74
2020/12/28 12:23:50;;;;;;;0.10;0.10;;;5.30;89.60;;;;;;5053228;28;20021;-74
2020/12/28 12:26:19;;;;;;;1.57;0.30;;;5.20;90.10;;;;;;5034645;28;20041;-74
2020/12/28 12:28:45;;;;;;;0.23;0.10;;;5.20;90.30;;;;;;5053090;28;20021;-74
2020/12/28 12:31:13;;;;;;;0.47;0.20;;;5.20;90.50;;;;;;5035298;28;20079;-74
2020/12/28 12:33:39;;;;;;;0.43;0.20;;;5.20;90.50;;;;;;5035021;28;20351;-74
2020/12/28 12:36:04;;;;;;;0.97;0.30;;;5.20;90.70;;;;;;5053294;28;20032;-74
2020/12/28 12:38:30;;;;;;;0.80;0.20;;;5.20;90.90;;;;;;5052391;28;20455;-74
2020/12/28 12:40:56;;;;;;;1.20;0.50;;;5.30;90.80;;;;;;5052946;28;20462;-74
2020/12/28 12:43:21;;;;;;;0.60;0.37;;;5.30;90.90;;;;;;5034391;28;20032;-74
2020/12/28 12:45:47;;;;;;;1.43;0.30;;;5.30;91.00;;;;;;5052789;28;20025;-74
2020/12/28 12:48:12;;;;;;;1.63;0.40;;;5.30;90.90;;;;;;5052120;28;20032;-74
2020/12/28 12:50:38;;;;;;;1.67;0.57;;;5.40;91.00;;;;;;5034038;28;20470;-74
2020/12/28 12:53:04;;;;;;;1.73;1.03;;;5.40;91.10;;;;;;5052665;28;20159;-74
2020/12/28 12:55:29;;;;;;;1.63;0.70;;;5.40;91.20;;;;;;5033642;28;20494;-74
2020/12/28 12:57:55;;;;;;;1.63;0.80;;;5.40;91.10;;;;;;5034771;28;20029;-74